createdAt,value
2022-11-17T00:00:22.132Z,11.45
2022-11-17T00:02:48.501Z,11.42
2022-11-17T00:05:15.053Z,11.45
2022-11-17T00:07:44.015Z,11.49
2022-11-17T00:10:10.518Z,11.44
2022-11-17T00:12:55.734Z,11.39
2022-11-17T00:15:22.235Z,11.41
2022-11-17T00:17:48.926Z,11.46
2022-11-17T00:20:34.665Z,11.54
2022-11-17T00:23:00.995Z,11.35
2022-11-17T00:25:27.582Z,10.60
2022-11-17T00:27:54.095Z,10.72
2022-11-17T00:30:42.503Z,9.84
2022-11-17T00:33:28.700Z,10.03
2022-11-17T00:35:55.404Z,10.38
2022-11-17T00:38:21.723Z,10.54
2022-11-17T00:40:48.049Z,10.67
2022-11-17T00:43:14.366Z,10.82
2022-11-17T00:45:40.941Z,11.00
2022-11-17T00:48:07.255Z,11.16
2022-11-17T00:50:33.562Z,11.18
2022-11-17T00:52:59.899Z,11.24
2022-11-17T00:55:26.522Z,11.19
2022-11-17T00:57:52.877Z,10.45
2022-11-17T01:00:21.130Z,9.98
2022-11-17T01:02:47.476Z,10.40
2022-11-17T01:05:13.830Z,10.57
2022-11-17T01:07:40.256Z,10.62
2022-11-17T01:10:07.161Z,10.61
2022-11-17T01:12:33.492Z,10.81
2022-11-17T01:14:59.845Z,10.86
2022-11-17T01:17:26.169Z,11.04
2022-11-17T01:19:52.529Z,11.20
2022-11-17T01:22:18.847Z,11.24
2022-11-17T01:24:45.248Z,11.33
2022-11-17T01:27:11.874Z,11.34
2022-11-17T01:29:38.224Z,11.33
2022-11-17T01:32:04.772Z,11.43
2022-11-17T01:34:31.216Z,11.43
2022-11-17T01:37:26.785Z,11.43
2022-11-17T01:39:53.134Z,11.17
2022-11-17T01:42:25.940Z,11.34
2022-11-17T01:44:55.190Z,11.39
2022-11-17T01:47:42.625Z,11.49
2022-11-17T01:50:35.180Z,11.29
2022-11-17T01:53:15.449Z,11.24
2022-11-17T01:55:46.854Z,11.28
2022-11-17T01:58:21.705Z,11.24
2022-11-17T02:00:48.135Z,11.49
2022-11-17T02:03:14.666Z,11.33
2022-11-17T02:05:48.752Z,11.19
2022-11-17T02:08:16.917Z,11.11
2022-11-17T02:10:47.194Z,11.06
2022-11-17T02:13:19.034Z,11.05
2022-11-17T02:15:45.568Z,11.14
2022-11-17T02:18:12.212Z,11.31
2022-11-17T02:20:51.425Z,11.30
2022-11-17T02:23:34.120Z,11.10
2022-11-17T02:26:38.638Z,10.97
2022-11-17T02:29:27.613Z,11.04
2022-11-17T02:32:04.650Z,10.98
2022-11-17T02:34:38.005Z,10.67
2022-11-17T02:37:16.787Z,10.26
2022-11-17T02:39:53.928Z,10.06
2022-11-17T02:42:55.813Z,10.24
2022-11-17T02:45:29.410Z,10.29
2022-11-17T02:48:00.409Z,10.33
2022-11-17T02:50:29.524Z,10.38
2022-11-17T02:52:56.615Z,10.41
2022-11-17T02:55:23.275Z,10.34
2022-11-17T02:57:49.810Z,10.58
2022-11-17T03:00:19.991Z,10.91
2022-11-17T03:03:01.613Z,10.94
2022-11-17T03:05:50.291Z,11.09
2022-11-17T03:08:39.803Z,11.38
2022-11-17T03:11:08.126Z,11.46
2022-11-17T03:13:40.653Z,11.52
2022-11-17T03:16:13.088Z,11.49
2022-11-17T03:18:49.028Z,11.59
2022-11-17T03:21:15.310Z,11.72
2022-11-17T03:23:59.632Z,11.77
2022-11-17T03:26:32.558Z,11.86
2022-11-17T03:29:01.892Z,11.91
2022-11-17T03:31:30.135Z,11.91
2022-11-17T03:33:57.751Z,11.98
2022-11-17T03:36:33.963Z,12.00
2022-11-17T03:39:17.048Z,12.05
2022-11-17T03:41:49.240Z,12.09
2022-11-17T03:44:19.295Z,12.11
2022-11-17T03:46:48.502Z,12.14
2022-11-17T03:49:17.954Z,12.19
2022-11-17T03:51:44.452Z,12.14
2022-11-17T03:54:11.549Z,11.98
2022-11-17T03:57:16.400Z,11.90
2022-11-17T04:00:09.295Z,11.99
2022-11-17T04:02:35.879Z,12.04
2022-11-17T04:05:08.576Z,12.14
2022-11-17T04:07:36.718Z,12.14
2022-11-17T04:10:05.105Z,11.92
2022-11-17T04:12:50.096Z,11.97
2022-11-17T04:15:51.964Z,12.00
2022-11-17T04:18:19.549Z,11.98
2022-11-17T04:20:48.975Z,12.00
2022-11-17T04:23:15.894Z,12.08
2022-11-17T04:26:06.393Z,11.92
2022-11-17T04:28:37.540Z,11.91
2022-11-17T04:31:18.675Z,12.02
2022-11-17T04:33:52.809Z,11.82
2022-11-17T04:36:24.626Z,11.93
2022-11-17T04:38:54.309Z,11.88
2022-11-17T04:41:40.931Z,11.68
2022-11-17T04:44:08.916Z,11.94
2022-11-17T04:46:37.492Z,12.00
2022-11-17T04:49:05.093Z,12.04
2022-11-17T04:51:32.486Z,12.01
2022-11-17T04:53:59.415Z,12.00
2022-11-17T04:56:26.910Z,11.85
2022-11-17T04:58:53.655Z,11.81
2022-11-17T05:01:22.233Z,11.87
2022-11-17T05:03:53.971Z,11.79
2022-11-17T05:06:34.580Z,11.74
2022-11-17T05:09:05.253Z,11.63
2022-11-17T05:11:50.154Z,11.81
2022-11-17T05:14:19.651Z,11.63
2022-11-17T05:17:09.522Z,11.51
2022-11-17T05:19:40.228Z,11.39
2022-11-17T05:22:26.907Z,11.15
2022-11-17T05:24:54.354Z,10.99
2022-11-17T05:27:21.922Z,11.18
2022-11-17T05:29:48.668Z,11.08
2022-11-17T05:32:15.328Z,11.07
2022-11-17T05:34:41.664Z,10.93
2022-11-17T05:37:08.018Z,11.01
2022-11-17T05:39:34.344Z,11.08
2022-11-17T05:42:00.744Z,11.06
2022-11-17T05:44:27.286Z,11.05
2022-11-17T05:46:53.724Z,11.09
2022-11-17T05:49:20.104Z,11.10
2022-11-17T05:51:52.369Z,11.12
2022-11-17T05:54:19.187Z,11.08
2022-11-17T05:56:47.825Z,11.00
2022-11-17T05:59:27.579Z,10.91
2022-11-17T06:02:03.926Z,10.90
2022-11-17T06:04:30.666Z,11.06
2022-11-17T06:06:59.441Z,11.04
2022-11-17T06:09:28.540Z,11.01
2022-11-17T06:11:56.197Z,11.18
2022-11-17T06:14:24.917Z,11.61
2022-11-17T06:16:56.142Z,11.91
2022-11-17T06:19:27.253Z,12.10
2022-11-17T06:22:11.708Z,12.34
2022-11-17T06:24:39.959Z,12.16
2022-11-17T06:27:06.656Z,12.24
2022-11-17T06:29:33.213Z,12.12
2022-11-17T06:32:00.217Z,12.35
2022-11-17T06:34:27.610Z,12.34
2022-11-17T06:36:54.040Z,12.48
2022-11-17T06:39:20.381Z,12.14
2022-11-17T06:41:46.789Z,11.86
2022-11-17T06:44:13.130Z,11.63
2022-11-17T06:46:39.429Z,11.61
2022-11-17T06:49:07.325Z,11.57
2022-11-17T06:51:39.876Z,11.66
2022-11-17T06:54:12.274Z,11.89
2022-11-17T06:56:38.627Z,12.00
2022-11-17T06:59:05.278Z,11.94
2022-11-17T07:01:31.797Z,11.96
2022-11-17T07:03:58.254Z,12.08
2022-11-17T07:06:24.717Z,11.82
2022-11-17T07:08:51.210Z,11.66
2022-11-17T07:11:18.309Z,11.72
2022-11-17T07:13:44.921Z,11.91
2022-11-17T07:16:22.904Z,11.79
2022-11-17T07:18:52.037Z,11.70
2022-11-17T07:21:18.503Z,11.74
2022-11-17T07:23:45.796Z,11.98
2022-11-17T07:26:12.819Z,11.87
2022-11-17T07:28:39.374Z,12.16
2022-11-17T07:31:08.421Z,12.43
2022-11-17T07:33:35.063Z,12.34
2022-11-17T07:36:03.506Z,12.24
2022-11-17T07:38:37.639Z,12.06
2022-11-17T07:41:05.452Z,11.95
2022-11-17T07:43:33.209Z,11.98
2022-11-17T07:46:04.136Z,12.23
2022-11-17T07:48:30.708Z,12.10
2022-11-17T07:51:01.115Z,11.94
2022-11-17T07:53:27.850Z,11.84
2022-11-17T07:55:54.789Z,11.76
2022-11-17T07:58:21.429Z,11.62
2022-11-17T08:00:47.917Z,11.64
2022-11-17T08:03:14.695Z,11.56
2022-11-17T08:05:43.720Z,11.68
2022-11-17T08:08:10.794Z,11.66
2022-11-17T08:10:37.217Z,11.59
2022-11-17T08:13:03.997Z,11.70
2022-11-17T08:15:31.206Z,11.77
2022-11-17T08:17:59.692Z,11.90
2022-11-17T08:20:27.981Z,11.78
2022-11-17T08:22:55.123Z,11.82
2022-11-17T08:25:24.270Z,11.96
2022-11-17T08:27:54.766Z,12.16
2022-11-17T08:30:21.894Z,12.23
2022-11-17T08:32:49.983Z,12.30
2022-11-17T08:35:17.163Z,12.43
2022-11-17T08:37:43.681Z,12.54
2022-11-17T08:40:11.538Z,12.56
2022-11-17T08:42:37.973Z,12.54
2022-11-17T08:45:06.054Z,12.49
2022-11-17T08:47:32.623Z,12.52
2022-11-17T08:49:59.068Z,12.45
2022-11-17T08:52:27.645Z,12.51
2022-11-17T08:54:54.534Z,12.58
2022-11-17T08:57:23.933Z,12.63
2022-11-17T08:59:50.723Z,12.66
2022-11-17T09:02:17.437Z,12.64
2022-11-17T09:04:45.977Z,12.80
2022-11-17T09:07:12.437Z,12.75
2022-11-17T09:09:39.254Z,12.79
2022-11-17T09:12:06.334Z,12.76
2022-11-17T09:14:33.134Z,12.74
2022-11-17T09:16:59.481Z,12.66
2022-11-17T09:19:26.212Z,12.58
2022-11-17T09:21:52.555Z,12.35
2022-11-17T09:24:18.895Z,12.56
2022-11-17T09:26:45.448Z,12.61
2022-11-17T09:29:11.853Z,12.64
2022-11-17T09:31:38.531Z,12.65
2022-11-17T09:34:05.775Z,12.69
2022-11-17T09:36:32.738Z,12.85
2022-11-17T09:38:59.076Z,12.89
2022-11-17T09:41:35.881Z,13.04
2022-11-17T09:44:10.695Z,13.26
2022-11-17T09:46:55.981Z,12.96
2022-11-17T09:50:09.903Z,12.68
2022-11-17T09:52:54.436Z,12.59
2022-11-17T09:55:32.733Z,12.47
2022-11-17T09:58:27.499Z,12.54
2022-11-17T10:00:54.313Z,12.49
2022-11-17T10:03:25.288Z,12.53
2022-11-17T10:05:53.058Z,12.51
2022-11-17T10:08:31.590Z,12.68
2022-11-17T10:10:57.959Z,12.80
2022-11-17T10:13:33.189Z,12.94
2022-11-17T10:16:05.500Z,12.96
2022-11-17T10:18:38.108Z,13.10
2022-11-17T10:21:06.685Z,13.41
2022-11-17T10:23:57.770Z,13.61
2022-11-17T10:26:24.516Z,13.33
2022-11-17T10:29:13.993Z,13.30
2022-11-17T10:31:45.926Z,13.59
2022-11-17T10:34:37.007Z,13.44
2022-11-17T10:37:24.448Z,13.38
2022-11-17T10:39:50.917Z,13.32
2022-11-17T10:42:20.364Z,12.92
2022-11-17T10:44:52.286Z,13.00
2022-11-17T10:47:40.412Z,13.07
2022-11-17T10:50:27.434Z,13.22
2022-11-17T10:53:14.996Z,13.55
2022-11-17T10:55:42.416Z,13.65
2022-11-17T10:58:25.111Z,13.70
2022-11-17T11:00:56.925Z,13.75
2022-11-17T11:03:27.783Z,13.83
2022-11-17T11:06:22.687Z,13.77
2022-11-17T11:09:13.951Z,13.60
2022-11-17T11:11:53.597Z,13.71
2022-11-17T11:14:41.936Z,13.81
2022-11-17T11:17:13.342Z,13.90
2022-11-17T11:19:47.469Z,13.95
2022-11-17T11:22:26.699Z,13.97
2022-11-17T11:25:30.744Z,13.97
2022-11-17T11:28:12.262Z,13.97
2022-11-17T11:30:48.048Z,14.00
2022-11-17T11:33:17.288Z,14.03
2022-11-17T11:36:02.359Z,14.02
2022-11-17T11:38:46.808Z,14.07
2022-11-17T11:41:26.195Z,14.07
2022-11-17T11:44:13.323Z,14.13
2022-11-17T11:46:59.700Z,14.09
2022-11-17T11:49:41.182Z,14.05
2022-11-17T11:52:16.181Z,14.01
2022-11-17T11:54:54.141Z,14.05
2022-11-17T11:57:28.315Z,14.07
2022-11-17T12:00:04.305Z,14.12
2022-11-17T12:02:53.549Z,14.19
2022-11-17T12:05:39.682Z,14.12
2022-11-17T12:08:20.654Z,14.07
2022-11-17T12:10:57.496Z,14.13
2022-11-17T12:13:24.454Z,14.19
2022-11-17T12:15:51.138Z,14.15
2022-11-17T12:18:17.435Z,14.14
2022-11-17T12:21:01.044Z,14.09
2022-11-17T12:23:54.454Z,14.05
2022-11-17T12:26:27.136Z,14.08
2022-11-17T12:29:21.538Z,14.08
2022-11-17T12:31:52.307Z,14.05
2022-11-17T12:34:22.969Z,14.07
2022-11-17T12:37:26.344Z,14.14
2022-11-17T12:40:02.149Z,14.13
2022-11-17T12:42:30.551Z,14.09
2022-11-17T12:45:05.388Z,14.22
2022-11-17T12:47:54.794Z,14.19
2022-11-17T12:50:53.950Z,14.23
2022-11-17T12:53:54.087Z,14.25
2022-11-17T12:56:48.013Z,14.31
2022-11-17T12:59:36.018Z,14.33
2022-11-17T13:02:16.789Z,14.38
2022-11-17T13:05:00.059Z,14.39
2022-11-17T13:07:26.685Z,14.39
2022-11-17T13:09:57.023Z,14.43
2022-11-17T13:12:28.902Z,14.51
2022-11-17T13:15:02.433Z,14.39
2022-11-17T13:17:30.831Z,14.49
2022-11-17T13:20:02.116Z,14.60
2022-11-17T13:22:28.541Z,14.48
2022-11-17T13:24:54.915Z,14.45
2022-11-17T13:27:25.107Z,14.38
2022-11-17T13:29:52.522Z,14.43
2022-11-17T13:32:26.571Z,14.30
2022-11-17T13:34:56.639Z,14.36
2022-11-17T13:37:34.366Z,14.42
2022-11-17T13:40:12.885Z,14.37
2022-11-17T13:42:39.379Z,14.40
2022-11-17T13:45:06.483Z,14.57
2022-11-17T13:47:39.359Z,14.50
2022-11-17T13:50:27.317Z,14.52
2022-11-17T13:52:55.779Z,14.57
2022-11-17T13:55:23.222Z,14.71
2022-11-17T13:57:59.571Z,14.63
2022-11-17T14:00:26.856Z,14.61
2022-11-17T14:02:57.902Z,14.70
2022-11-17T14:05:29.371Z,14.86
2022-11-17T14:07:58.112Z,15.00
2022-11-17T14:10:31.483Z,14.85
2022-11-17T14:13:00.859Z,14.77
2022-11-17T14:15:29.427Z,14.57
2022-11-17T14:17:58.760Z,14.40
2022-11-17T14:20:25.272Z,14.07
2022-11-17T14:23:01.993Z,14.01
2022-11-17T14:25:29.513Z,13.87
2022-11-17T14:27:56.208Z,13.75
2022-11-17T14:30:22.611Z,13.71
2022-11-17T14:32:48.932Z,13.75
2022-11-17T14:35:15.736Z,13.77
2022-11-17T14:37:42.976Z,13.70
2022-11-17T14:40:14.356Z,13.60
2022-11-17T14:42:41.328Z,13.65
2022-11-17T14:45:16.961Z,13.65
2022-11-17T14:47:44.133Z,13.67
2022-11-17T14:50:16.945Z,13.56
2022-11-17T14:52:44.701Z,13.48
2022-11-17T14:55:14.532Z,13.55
2022-11-17T14:57:41.533Z,13.52
2022-11-17T15:00:13.431Z,13.57
2022-11-17T15:02:42.627Z,13.57
2022-11-17T15:05:09.177Z,13.58
2022-11-17T15:07:35.532Z,13.64
2022-11-17T15:10:01.959Z,13.51
2022-11-17T15:12:29.701Z,13.57
2022-11-17T15:14:57.542Z,13.56
2022-11-17T15:17:25.236Z,13.44
2022-11-17T15:19:51.763Z,13.57
2022-11-17T15:22:18.705Z,13.58
2022-11-17T15:24:45.085Z,13.58
2022-11-17T15:27:12.267Z,13.66
2022-11-17T15:29:38.614Z,13.62
2022-11-17T15:32:06.075Z,13.72
2022-11-17T15:34:32.423Z,13.49
2022-11-17T15:36:58.820Z,13.43
2022-11-17T15:39:25.295Z,13.33
2022-11-17T15:41:51.866Z,13.42
2022-11-17T15:44:21.027Z,13.46
2022-11-17T15:46:48.101Z,13.48
2022-11-17T15:49:15.525Z,13.56
2022-11-17T15:51:42.090Z,13.77
2022-11-17T15:54:15.099Z,13.80
2022-11-17T15:56:46.392Z,13.74
2022-11-17T15:59:12.835Z,13.91
2022-11-17T16:01:40.332Z,14.11
2022-11-17T16:04:12.362Z,14.45
2022-11-17T16:06:41.039Z,14.65
2022-11-17T16:09:08.152Z,14.82
2022-11-17T16:11:35.419Z,14.97
2022-11-17T16:14:02.694Z,14.69
2022-11-17T16:16:31.459Z,14.33
2022-11-17T16:18:58.167Z,14.46
2022-11-17T16:21:24.936Z,14.73
2022-11-17T16:23:54.570Z,14.57
2022-11-17T16:26:22.626Z,14.54
2022-11-17T16:28:49.228Z,14.33
2022-11-17T16:31:19.927Z,14.24
2022-11-17T16:33:51.207Z,14.01
2022-11-17T16:36:18.916Z,13.87
2022-11-17T16:38:59.713Z,13.88
2022-11-17T16:41:30.764Z,13.91
2022-11-17T16:43:57.267Z,13.95
2022-11-17T16:46:29.417Z,13.97
2022-11-17T16:48:56.729Z,13.94
2022-11-17T16:51:23.093Z,13.96
2022-11-17T16:53:56.330Z,14.09
2022-11-17T16:56:22.905Z,14.01
2022-11-17T16:58:50.269Z,14.02
2022-11-17T17:01:19.512Z,14.12
2022-11-17T17:03:46.188Z,13.91
2022-11-17T17:06:14.992Z,13.82
2022-11-17T17:08:44.244Z,13.82
2022-11-17T17:11:13.444Z,13.52
2022-11-17T17:13:41.437Z,13.32
2022-11-17T17:16:13.707Z,13.14
2022-11-17T17:18:40.979Z,13.09
2022-11-17T17:21:11.929Z,13.14
2022-11-17T17:23:38.480Z,13.32
2022-11-17T17:26:07.739Z,13.44
2022-11-17T17:28:36.813Z,13.68
2022-11-17T17:31:04.336Z,13.88
2022-11-17T17:33:32.650Z,13.93
2022-11-17T17:36:07.354Z,13.94
2022-11-17T17:38:34.275Z,13.98
2022-11-17T17:41:08.460Z,13.88
2022-11-17T17:43:35.488Z,12.94
2022-11-17T17:46:03.449Z,12.68
2022-11-17T17:48:31.461Z,12.42
2022-11-17T17:51:06.384Z,12.62
2022-11-17T17:53:33.476Z,12.48
2022-11-17T17:56:01.560Z,12.40
2022-11-17T17:58:28.611Z,12.77
2022-11-17T18:00:56.232Z,13.15
2022-11-17T18:03:23.012Z,13.14
2022-11-17T18:05:49.475Z,13.26
2022-11-17T18:08:15.877Z,13.30
2022-11-17T18:10:42.265Z,13.35
2022-11-17T18:13:10.792Z,12.84
2022-11-17T18:15:39.435Z,12.27
2022-11-17T18:18:05.872Z,12.09
2022-11-17T18:20:32.244Z,12.35
2022-11-17T18:22:58.679Z,12.36
2022-11-17T18:25:25.040Z,12.54
2022-11-17T18:27:51.855Z,12.25
2022-11-17T18:30:18.245Z,12.33
2022-11-17T18:32:44.815Z,12.25
2022-11-17T18:35:11.400Z,12.39
2022-11-17T18:37:37.859Z,12.25
2022-11-17T18:40:04.747Z,12.40
2022-11-17T18:42:32.116Z,12.13
2022-11-17T18:44:58.558Z,12.09
2022-11-17T18:47:24.906Z,11.87
2022-11-17T18:49:51.250Z,11.99
2022-11-17T18:52:17.575Z,12.17
2022-11-17T18:54:43.949Z,11.69
2022-11-17T18:57:10.392Z,11.45
2022-11-17T18:59:36.759Z,11.47
2022-11-17T19:02:03.188Z,11.35
2022-11-17T19:04:29.598Z,11.47
2022-11-17T19:06:55.996Z,11.40
2022-11-17T19:09:22.380Z,11.56
2022-11-17T19:11:48.715Z,11.15
2022-11-17T19:14:15.116Z,10.94
2022-11-17T19:16:44.956Z,10.95
2022-11-17T19:19:12.946Z,11.03
2022-11-17T19:21:39.852Z,10.68
2022-11-17T19:24:06.728Z,10.80
2022-11-17T19:26:35.953Z,10.89
2022-11-17T19:29:06.472Z,10.64
2022-11-17T19:31:36.478Z,10.53
2022-11-17T19:34:03.538Z,10.29
2022-11-17T19:36:32.137Z,9.93
2022-11-17T19:39:00.292Z,10.09
2022-11-17T19:41:29.772Z,9.93
2022-11-17T19:43:58.112Z,9.93
2022-11-17T19:46:26.232Z,10.17
2022-11-17T19:48:52.921Z,10.09
2022-11-17T19:51:28.015Z,10.06
2022-11-17T19:53:55.892Z,10.32
2022-11-17T19:56:23.465Z,9.89
2022-11-17T19:58:53.723Z,10.04
2022-11-17T20:01:24.762Z,10.15
2022-11-17T20:03:51.592Z,10.22
2022-11-17T20:06:20.338Z,10.41
2022-11-17T20:08:48.266Z,10.45
2022-11-17T20:11:18.189Z,10.49
2022-11-17T20:13:45.099Z,10.79
2022-11-17T20:16:13.797Z,10.94
2022-11-17T20:18:45.904Z,10.97
2022-11-17T20:21:13.925Z,11.08
2022-11-17T20:23:41.808Z,10.90
2022-11-17T20:26:16.812Z,11.01
2022-11-17T20:28:43.520Z,11.00
2022-11-17T20:31:21.500Z,10.90
2022-11-17T20:33:48.821Z,11.10
2022-11-17T20:36:17.887Z,11.08
2022-11-17T20:38:44.980Z,10.83
2022-11-17T20:41:11.442Z,10.58
2022-11-17T20:43:38.176Z,10.58
2022-11-17T20:46:04.655Z,10.54
2022-11-17T20:48:33.863Z,10.52
2022-11-17T20:51:04.765Z,10.28
2022-11-17T20:53:31.967Z,10.17
2022-11-17T20:55:59.643Z,10.10
2022-11-17T20:58:26.960Z,9.94
2022-11-17T21:00:53.943Z,9.88
2022-11-17T21:03:21.268Z,9.93
2022-11-17T21:05:59.629Z,9.96
2022-11-17T21:08:29.315Z,10.00
2022-11-17T21:11:01.119Z,10.07
2022-11-17T21:13:28.960Z,10.05
2022-11-17T21:16:13.213Z,9.97
2022-11-17T21:18:45.964Z,10.01
2022-11-17T21:21:12.414Z,10.02
2022-11-17T21:23:40.021Z,10.09
2022-11-17T21:26:10.868Z,10.12
2022-11-17T21:28:38.262Z,10.09
2022-11-17T21:31:14.256Z,10.17
2022-11-17T21:33:41.300Z,10.12
2022-11-17T21:36:10.412Z,10.06
2022-11-17T21:38:37.281Z,9.97
2022-11-17T21:41:05.846Z,9.93
2022-11-17T21:43:35.392Z,10.00
2022-11-17T21:46:02.909Z,10.01
2022-11-17T21:48:29.645Z,9.96
2022-11-17T21:50:56.235Z,10.00
2022-11-17T21:53:22.696Z,9.98
2022-11-17T21:55:49.024Z,9.99
2022-11-17T21:58:15.567Z,9.99
2022-11-17T22:00:42.020Z,10.08
2022-11-17T22:03:09.291Z,10.22
2022-11-17T22:05:38.788Z,10.28
2022-11-17T22:08:05.453Z,10.41
2022-11-17T22:10:31.976Z,10.36
2022-11-17T22:12:58.304Z,10.44
2022-11-17T22:15:24.644Z,10.55
2022-11-17T22:17:51.007Z,10.66
2022-11-17T22:20:17.676Z,10.56
2022-11-17T22:22:44.033Z,10.49
2022-11-17T22:25:37.612Z,10.61
2022-11-17T22:27:56.700Z,10.65
2022-11-17T22:30:23.223Z,10.66
2022-11-17T22:32:49.548Z,10.73
2022-11-17T22:35:16.006Z,10.83
2022-11-17T22:37:42.421Z,10.76
2022-11-17T22:40:09.159Z,10.74
2022-11-17T22:42:35.495Z,10.84
2022-11-17T22:45:01.841Z,10.81
2022-11-17T22:47:28.209Z,10.91
2022-11-17T22:49:54.542Z,11.02
2022-11-17T22:52:20.879Z,11.17
2022-11-17T22:54:47.415Z,11.07
2022-11-17T22:57:13.838Z,11.25
2022-11-17T22:59:40.164Z,11.35
2022-11-17T23:02:06.507Z,11.50
2022-11-17T23:04:32.922Z,11.66
2022-11-17T23:06:59.408Z,11.68
2022-11-17T23:09:25.819Z,11.77
2022-11-17T23:11:52.351Z,11.84
2022-11-17T23:14:18.742Z,11.94
2022-11-17T23:16:45.086Z,11.83
2022-11-17T23:19:13.109Z,11.98
2022-11-17T23:21:39.891Z,11.95
2022-11-17T23:24:09.365Z,12.08
2022-11-17T23:26:36.275Z,12.14
2022-11-17T23:29:02.647Z,12.20
2022-11-17T23:31:29.041Z,12.27
2022-11-17T23:33:55.439Z,12.31
2022-11-17T23:36:23.248Z,12.30
2022-11-17T23:38:50.976Z,12.21
2022-11-17T23:41:19.567Z,12.10
2022-11-17T23:43:46.488Z,12.17
2022-11-17T23:46:15.219Z,11.69
2022-11-17T23:48:42.727Z,11.60
2022-11-17T23:51:11.966Z,11.74
2022-11-17T23:53:38.620Z,11.78
2022-11-17T23:56:05.879Z,11.72
2022-11-17T23:58:33.422Z,11.86
